createdAt,value
2018-09-30T00:01:35.827Z,5.83
2018-09-30T00:04:05.305Z,5.30
2018-09-30T00:06:34.755Z,6.00
2018-09-30T00:09:05.352Z,5.40
2018-09-30T00:11:34.773Z,6.35
2018-09-30T00:14:04.216Z,5.53
2018-09-30T00:16:33.567Z,5.35
2018-09-30T00:19:03.099Z,5.72
2018-09-30T00:21:33.169Z,6.35
2018-09-30T00:24:07.855Z,6.25
2018-09-30T00:26:42.371Z,5.70
2018-09-30T00:29:11.770Z,5.30
2018-09-30T00:31:41.194Z,5.08
2018-09-30T00:34:15.888Z,5.58
2018-09-30T00:36:45.308Z,5.97
2018-09-30T00:39:14.722Z,6.30
2018-09-30T00:41:44.143Z,5.28
2018-09-30T00:44:13.529Z,6.15
2018-09-30T00:46:42.965Z,6.12
2018-09-30T00:49:12.508Z,6.08
2018-09-30T00:51:42.036Z,6.58
2018-09-30T00:54:12.135Z,6.58
2018-09-30T00:56:41.758Z,5.50
2018-09-30T00:59:11.685Z,6.33
2018-09-30T01:01:41.368Z,6.15
2018-09-30T01:04:11.071Z,5.33
2018-09-30T01:06:40.467Z,6.47
2018-09-30T01:09:13.533Z,6.92
2018-09-30T01:11:43.470Z,7.40
2018-09-30T01:14:13.135Z,6.60
2018-09-30T01:16:42.569Z,6.62
2018-09-30T01:19:12.048Z,7.00
2018-09-30T01:21:48.275Z,6.37
2018-09-30T01:24:17.804Z,6.75
2018-09-30T01:26:47.210Z,7.40
2018-09-30T01:29:16.839Z,6.70
2018-09-30T01:31:46.253Z,7.03
2018-09-30T01:34:15.654Z,6.47
2018-09-30T01:36:45.058Z,6.70
2018-09-30T01:39:14.425Z,6.25
2018-09-30T01:41:43.825Z,6.37
2018-09-30T01:44:13.191Z,6.33
2018-09-30T01:46:42.607Z,7.05
2018-09-30T01:49:11.995Z,6.37
2018-09-30T01:51:41.353Z,6.00
2018-09-30T01:54:10.834Z,6.45
2018-09-30T01:56:40.251Z,6.28
2018-09-30T01:59:09.634Z,6.37
2018-09-30T02:01:39.049Z,6.92
2018-09-30T02:04:08.429Z,6.78
2018-09-30T02:06:37.799Z,5.60
2018-09-30T02:09:07.275Z,6.92
2018-09-30T02:11:36.761Z,6.33
2018-09-30T02:14:06.118Z,6.08
2018-09-30T02:16:35.555Z,6.37
2018-09-30T02:19:04.961Z,6.65
2018-09-30T02:21:34.344Z,6.58
2018-09-30T02:24:03.884Z,6.37
2018-09-30T02:26:33.450Z,5.50
2018-09-30T02:29:03.023Z,6.25
2018-09-30T02:31:32.571Z,6.53
2018-09-30T02:34:02.012Z,6.20
2018-09-30T02:36:31.514Z,6.67
2018-09-30T02:39:00.951Z,6.00
2018-09-30T02:41:30.347Z,6.75
2018-09-30T02:43:59.866Z,5.97
2018-09-30T02:46:29.339Z,6.05
2018-09-30T02:48:58.725Z,6.37
2018-09-30T02:51:28.172Z,6.62
2018-09-30T02:53:57.560Z,6.40
2018-09-30T02:56:26.920Z,5.83
2018-09-30T02:58:56.322Z,6.50
2018-09-30T03:01:25.669Z,5.72
2018-09-30T03:03:55.024Z,5.12
2018-09-30T03:06:29.444Z,5.78
2018-09-30T03:09:04.202Z,6.30
2018-09-30T03:11:33.618Z,5.17
2018-09-30T03:14:03.108Z,5.65
2018-09-30T03:16:32.535Z,6.15
2018-09-30T03:19:02.055Z,5.55
2018-09-30T03:21:31.432Z,5.62
2018-09-30T03:24:00.843Z,6.50
2018-09-30T03:26:30.218Z,5.90
2018-09-30T03:28:59.636Z,5.83
2018-09-30T03:31:29.099Z,5.83
2018-09-30T03:33:58.599Z,5.70
2018-09-30T03:36:28.370Z,5.97
2018-09-30T03:38:57.866Z,5.65
2018-09-30T03:41:27.273Z,6.55
2018-09-30T03:43:56.632Z,5.78
2018-09-30T03:46:26.129Z,6.55
2018-09-30T03:48:55.604Z,5.75
2018-09-30T03:51:25.084Z,6.45
2018-09-30T03:53:54.716Z,5.70
2018-09-30T03:56:24.130Z,6.60
2018-09-30T03:58:53.608Z,4.67
2018-09-30T04:01:23.023Z,6.30
2018-09-30T04:03:52.484Z,6.35
2018-09-30T04:06:21.923Z,5.92
2018-09-30T04:08:51.351Z,6.72
2018-09-30T04:11:20.832Z,6.40
2018-09-30T04:13:50.273Z,5.15
2018-09-30T04:16:19.678Z,5.20
2018-09-30T04:18:49.100Z,6.30
2018-09-30T04:21:18.491Z,5.67
2018-09-30T04:23:47.884Z,6.42
2018-09-30T04:26:17.338Z,6.28
2018-09-30T04:28:46.716Z,6.03
2018-09-30T04:31:16.504Z,5.67
2018-09-30T04:33:45.947Z,7.97
2018-09-30T04:36:15.398Z,6.40
2018-09-30T04:38:44.727Z,5.90
2018-09-30T04:41:14.128Z,6.37
2018-09-30T04:43:43.576Z,6.22
2018-09-30T04:46:13.266Z,5.67
2018-09-30T04:48:42.723Z,6.20
2018-09-30T04:51:13.012Z,5.90
2018-09-30T04:53:42.757Z,6.37
2018-09-30T04:56:12.328Z,5.90
2018-09-30T04:58:41.885Z,6.28
2018-09-30T05:01:11.340Z,6.35
2018-09-30T05:03:41.080Z,5.65
2018-09-30T05:06:14.014Z,6.55
2018-09-30T05:08:43.669Z,5.87
2018-09-30T05:11:16.442Z,6.95
2018-09-30T05:13:46.353Z,6.05
2018-09-30T05:16:16.226Z,7.97
2018-09-30T05:18:45.900Z,6.92
2018-09-30T05:21:15.626Z,7.08
2018-09-30T05:23:45.419Z,8.03
2018-09-30T05:26:15.159Z,7.03
2018-09-30T05:28:44.604Z,6.53
2018-09-30T05:31:14.421Z,7.17
2018-09-30T05:33:44.211Z,7.58
2018-09-30T05:36:13.659Z,7.05
2018-09-30T05:38:43.225Z,6.55
2018-09-30T05:41:13.099Z,6.95
2018-09-30T05:43:42.475Z,6.50
2018-09-30T05:46:11.831Z,6.87
2018-09-30T05:48:41.152Z,6.33
2018-09-30T05:51:10.536Z,6.35
2018-09-30T05:53:39.924Z,6.12
2018-09-30T05:56:09.393Z,5.80
2018-09-30T05:58:38.711Z,6.72
2018-09-30T06:01:08.343Z,6.87
2018-09-30T06:03:37.784Z,6.20
2018-09-30T06:06:07.214Z,6.50
2018-09-30T06:08:36.637Z,5.92
2018-09-30T06:11:06.073Z,6.33
2018-09-30T06:13:35.415Z,6.50
2018-09-30T06:16:04.863Z,5.97
2018-09-30T06:18:34.275Z,6.08
2018-09-30T06:21:03.729Z,6.15
2018-09-30T06:23:33.342Z,6.45
2018-09-30T06:26:02.687Z,6.97
2018-09-30T06:28:32.110Z,6.25
2018-09-30T06:31:01.515Z,6.33
2018-09-30T06:33:30.905Z,6.12
2018-09-30T06:36:00.481Z,6.75
2018-09-30T06:38:29.907Z,6.33
2018-09-30T06:40:59.351Z,6.30
2018-09-30T06:43:28.801Z,6.10
2018-09-30T06:45:58.185Z,6.35
2018-09-30T06:48:27.569Z,6.50
2018-09-30T06:50:57.010Z,6.50
2018-09-30T06:53:26.375Z,7.35
2018-09-30T06:55:55.835Z,6.80
2018-09-30T06:58:25.382Z,7.58
2018-09-30T07:00:54.817Z,6.83
2018-09-30T07:03:24.212Z,6.15
2018-09-30T07:05:53.573Z,6.35
2018-09-30T07:08:23.022Z,6.12
2018-09-30T07:10:53.380Z,6.03
2018-09-30T07:13:22.741Z,6.55
2018-09-30T07:15:52.119Z,5.90
2018-09-30T07:18:21.501Z,5.50
2018-09-30T07:20:50.845Z,5.80
2018-09-30T07:23:20.359Z,5.17
2018-09-30T07:25:49.771Z,6.47
2018-09-30T07:28:19.192Z,6.03
2018-09-30T07:30:48.639Z,6.85
2018-09-30T07:33:18.009Z,6.20
2018-09-30T07:35:47.582Z,6.40
2018-09-30T07:38:16.920Z,5.67
2018-09-30T07:40:46.566Z,5.92
2018-09-30T07:43:15.922Z,5.95
2018-09-30T07:45:45.243Z,5.40
2018-09-30T07:48:14.671Z,5.60
2018-09-30T07:50:44.091Z,6.72
2018-09-30T07:53:13.466Z,6.30
2018-09-30T07:55:42.982Z,6.20
2018-09-30T07:58:12.372Z,6.70
2018-09-30T08:00:41.742Z,5.90
2018-09-30T08:03:11.181Z,7.37
2018-09-30T08:05:40.648Z,6.05
2018-09-30T08:08:10.041Z,6.42
2018-09-30T08:10:39.390Z,6.72
2018-09-30T08:13:08.861Z,5.58
2018-09-30T08:15:38.186Z,5.65
2018-09-30T08:18:07.579Z,5.65
2018-09-30T08:20:37.267Z,6.03
2018-09-30T08:23:06.959Z,6.10
2018-09-30T08:25:36.409Z,5.97
2018-09-30T08:28:05.838Z,6.37
2018-09-30T08:30:35.207Z,6.75
2018-09-30T08:33:04.552Z,7.45
2018-09-30T08:35:33.920Z,6.10
2018-09-30T08:38:08.415Z,6.17
2018-09-30T08:40:43.069Z,6.62
2018-09-30T08:43:12.484Z,6.03
2018-09-30T08:45:41.997Z,7.37
2018-09-30T08:48:11.469Z,7.22
2018-09-30T08:50:40.853Z,6.75
2018-09-30T08:53:10.201Z,6.90
2018-09-30T08:55:39.621Z,6.75
2018-09-30T08:58:08.951Z,7.40
2018-09-30T09:00:38.327Z,6.95
2018-09-30T09:03:07.827Z,7.25
2018-09-30T09:05:37.202Z,6.45
2018-09-30T09:08:06.588Z,6.90
2018-09-30T09:10:35.981Z,6.60
2018-09-30T09:13:05.839Z,6.47
2018-09-30T09:15:37.787Z,6.67
2018-09-30T09:18:07.393Z,7.15
2018-09-30T09:20:39.609Z,7.30
2018-09-30T09:23:09.105Z,7.40
2018-09-30T09:25:39.026Z,7.15
2018-09-30T09:28:09.207Z,7.50
2018-09-30T09:30:38.729Z,7.05
2018-09-30T09:33:08.269Z,7.05
2018-09-30T09:35:37.903Z,6.67
2018-09-30T09:38:07.636Z,8.05
2018-09-30T09:40:37.120Z,7.55
2018-09-30T09:43:06.695Z,6.92
2018-09-30T09:45:36.109Z,7.10
2018-09-30T09:48:05.464Z,7.72
2018-09-30T09:50:34.875Z,7.17
2018-09-30T09:53:04.237Z,7.25
2018-09-30T09:55:33.567Z,5.78
2018-09-30T09:58:02.962Z,7.10
2018-09-30T10:00:37.588Z,7.20
2018-09-30T10:03:07.177Z,7.42
2018-09-30T10:05:36.575Z,7.80
2018-09-30T10:08:05.917Z,6.87
2018-09-30T10:10:35.412Z,7.80
2018-09-30T10:13:04.841Z,7.05
2018-09-30T10:15:34.339Z,7.30
2018-09-30T10:18:03.750Z,7.33
2018-09-30T10:20:33.203Z,6.95
2018-09-30T10:23:02.600Z,7.60
2018-09-30T10:25:32.095Z,6.90
2018-09-30T10:28:01.437Z,6.30
2018-09-30T10:30:30.843Z,7.97
2018-09-30T10:33:01.195Z,7.50
2018-09-30T10:35:30.569Z,6.97
2018-09-30T10:37:59.958Z,7.17
2018-09-30T10:40:29.387Z,6.50
2018-09-30T10:42:58.807Z,7.50
2018-09-30T10:45:28.195Z,6.50
2018-09-30T10:47:57.650Z,7.92
2018-09-30T10:50:27.025Z,7.28
2018-09-30T10:52:56.403Z,6.78
2018-09-30T10:55:25.925Z,7.78
2018-09-30T10:57:55.175Z,8.70
2018-09-30T11:00:24.552Z,7.95
2018-09-30T11:02:53.983Z,7.00
2018-09-30T11:05:23.423Z,7.20
2018-09-30T11:07:52.916Z,6.95
2018-09-30T11:10:22.528Z,7.85
2018-09-30T11:12:52.032Z,7.80
2018-09-30T11:15:21.518Z,7.22
2018-09-30T11:17:50.929Z,6.65
2018-09-30T11:20:20.429Z,7.58
2018-09-30T11:22:49.849Z,6.85
2018-09-30T11:25:19.321Z,7.47
2018-09-30T11:27:48.737Z,7.45
2018-09-30T11:30:18.132Z,6.45
2018-09-30T11:32:47.591Z,8.50
2018-09-30T11:35:17.039Z,6.33
2018-09-30T11:37:46.496Z,8.08
2018-09-30T11:40:16.153Z,8.53
2018-09-30T11:42:45.600Z,7.65
2018-09-30T11:45:14.982Z,7.50
2018-09-30T11:47:44.455Z,9.28
2018-09-30T11:50:14.077Z,7.85
2018-09-30T11:52:43.522Z,8.63
2018-09-30T11:55:12.978Z,8.20
2018-09-30T11:57:42.367Z,7.70
2018-09-30T12:00:11.849Z,8.20
2018-09-30T12:02:41.267Z,7.87
2018-09-30T12:05:10.673Z,8.03
2018-09-30T12:07:40.043Z,9.08
2018-09-30T12:10:09.527Z,8.05
2018-09-30T12:12:38.910Z,7.70
2018-09-30T12:15:08.332Z,7.30
2018-09-30T12:17:37.732Z,6.95
2018-09-30T12:20:07.303Z,8.20
2018-09-30T12:22:36.693Z,7.53
2018-09-30T12:25:06.089Z,7.17
2018-09-30T12:27:35.523Z,8.35
2018-09-30T12:30:04.914Z,8.28
2018-09-30T12:32:34.338Z,7.95
2018-09-30T12:35:03.752Z,6.75
2018-09-30T12:37:33.184Z,7.17
2018-09-30T12:40:02.602Z,7.95
2018-09-30T12:42:31.989Z,7.40
2018-09-30T12:45:02.070Z,8.20
2018-09-30T12:47:31.463Z,8.30
2018-09-30T12:50:00.853Z,9.05
2018-09-30T12:52:30.238Z,9.05
2018-09-30T12:54:59.700Z,7.58
2018-09-30T12:57:29.173Z,7.58
2018-09-30T12:59:58.571Z,8.60
2018-09-30T13:02:27.981Z,8.68
2018-09-30T13:04:57.406Z,6.95
2018-09-30T13:07:26.818Z,7.55
2018-09-30T13:09:56.190Z,8.35
2018-09-30T13:12:25.593Z,7.65
2018-09-30T13:14:55.040Z,6.85
2018-09-30T13:17:24.449Z,7.70
2018-09-30T13:19:53.951Z,7.85
2018-09-30T13:22:23.271Z,7.55
2018-09-30T13:24:52.822Z,7.42
2018-09-30T13:27:22.232Z,8.23
2018-09-30T13:29:51.745Z,8.25
2018-09-30T13:32:21.163Z,6.50
2018-09-30T13:34:50.614Z,7.75
2018-09-30T13:37:20.048Z,6.65
2018-09-30T13:39:49.559Z,7.30
2018-09-30T13:42:18.951Z,7.33
2018-09-30T13:44:48.304Z,6.62
2018-09-30T13:47:17.682Z,6.25
2018-09-30T13:49:47.039Z,7.67
2018-09-30T13:52:16.399Z,7.10
2018-09-30T13:54:45.832Z,7.60
2018-09-30T13:57:15.268Z,6.95
2018-09-30T13:59:44.679Z,7.03
2018-09-30T14:02:14.091Z,7.58
2018-09-30T14:04:43.476Z,7.10
2018-09-30T14:07:12.845Z,6.92
2018-09-30T14:09:42.221Z,6.78
2018-09-30T14:12:11.586Z,7.08
2018-09-30T14:14:40.967Z,6.90
2018-09-30T14:17:10.392Z,7.97
2018-09-30T14:19:39.775Z,7.17
2018-09-30T14:22:09.269Z,6.65
2018-09-30T14:24:38.668Z,6.05
2018-09-30T14:27:08.235Z,6.87
2018-09-30T14:29:37.622Z,7.95
2018-09-30T14:32:07.082Z,9.18
2018-09-30T14:34:36.503Z,8.65
2018-09-30T14:37:05.810Z,7.55
2018-09-30T14:39:35.260Z,8.05
2018-09-30T14:42:04.671Z,8.15
2018-09-30T14:44:34.051Z,7.75
2018-09-30T14:47:03.481Z,7.33
2018-09-30T14:49:33.033Z,7.65
2018-09-30T14:52:02.484Z,7.42
2018-09-30T14:54:31.975Z,8.30
2018-09-30T14:57:01.427Z,7.70
2018-09-30T14:59:30.841Z,7.58
2018-09-30T15:02:00.334Z,6.47
2018-09-30T15:04:29.844Z,6.75
2018-09-30T15:06:59.331Z,7.67
2018-09-30T15:09:28.659Z,6.25
2018-09-30T15:11:58.033Z,7.12
2018-09-30T15:14:27.431Z,6.45
2018-09-30T15:16:56.815Z,7.62
2018-09-30T15:19:26.128Z,6.70
2018-09-30T15:21:55.543Z,6.40
2018-09-30T15:24:24.964Z,6.35
2018-09-30T15:26:54.426Z,6.45
2018-09-30T15:29:23.931Z,6.28
2018-09-30T15:31:53.461Z,5.85
2018-09-30T15:34:22.892Z,6.22
2018-09-30T15:36:52.293Z,6.00
2018-09-30T15:39:21.647Z,5.87
2018-09-30T15:41:51.010Z,5.65
2018-09-30T15:44:20.406Z,5.50
2018-09-30T15:46:49.792Z,5.90
2018-09-30T15:49:19.219Z,6.17
2018-09-30T15:51:48.607Z,5.83
2018-09-30T15:54:17.999Z,5.92
2018-09-30T15:56:47.436Z,6.05
2018-09-30T15:59:16.829Z,6.75
2018-09-30T16:01:46.217Z,6.00
2018-09-30T16:04:15.667Z,6.65
2018-09-30T16:06:45.011Z,5.95
2018-09-30T16:09:14.410Z,6.33
2018-09-30T16:11:43.879Z,5.40
2018-09-30T16:14:13.965Z,5.80
2018-09-30T16:16:43.425Z,6.85
2018-09-30T16:19:14.551Z,7.42
2018-09-30T16:21:43.993Z,5.60
2018-09-30T16:24:14.261Z,5.33
2018-09-30T16:26:44.887Z,5.00
2018-09-30T16:29:14.345Z,5.90
2018-09-30T16:31:43.981Z,5.00
2018-09-30T16:34:14.224Z,4.67
2018-09-30T16:36:43.707Z,5.60
2018-09-30T16:39:14.131Z,4.70
2018-09-30T16:41:43.730Z,5.20
2018-09-30T16:44:13.795Z,5.83
2018-09-30T16:46:44.036Z,8.85
2018-09-30T16:49:14.078Z,11.40
2018-09-30T16:51:44.482Z,6.50
2018-09-30T16:54:13.967Z,7.35
2018-09-30T16:56:43.618Z,6.85
2018-09-30T16:59:14.358Z,5.83
2018-09-30T17:01:43.849Z,8.25
2018-09-30T17:04:14.821Z,10.68
2018-09-30T17:06:44.327Z,9.78
2018-09-30T17:09:13.753Z,8.23
2018-09-30T17:11:45.476Z,12.45
2018-09-30T17:14:14.953Z,13.83
2018-09-30T17:16:44.440Z,17.77
2018-09-30T17:19:13.881Z,20.37
2018-09-30T17:21:43.318Z,20.68
2018-09-30T17:24:12.802Z,13.60
2018-09-30T17:26:42.431Z,8.65
2018-09-30T17:29:11.928Z,10.05
2018-09-30T17:31:41.393Z,9.80
2018-09-30T17:34:10.792Z,7.67
2018-09-30T17:36:40.427Z,8.85
2018-09-30T17:39:10.659Z,9.93
2018-09-30T17:41:40.036Z,9.55
2018-09-30T17:44:09.851Z,9.50
2018-09-30T17:46:39.230Z,8.28
2018-09-30T17:49:08.668Z,9.00
2018-09-30T17:51:38.059Z,9.33
2018-09-30T17:54:07.415Z,7.12
2018-09-30T17:56:36.843Z,8.23
2018-09-30T17:59:06.267Z,7.75
2018-09-30T18:01:35.689Z,7.33
2018-09-30T18:04:05.124Z,6.95
2018-09-30T18:06:34.635Z,6.55
2018-09-30T18:09:06.247Z,6.15
2018-09-30T18:11:35.635Z,6.90
2018-09-30T18:14:05.272Z,7.50
2018-09-30T18:16:34.764Z,7.95
2018-09-30T18:19:04.278Z,8.60
2018-09-30T18:21:33.816Z,7.83
2018-09-30T18:24:03.341Z,7.45
2018-09-30T18:26:32.749Z,7.78
2018-09-30T18:29:02.227Z,7.70
2018-09-30T18:31:31.595Z,7.42
2018-09-30T18:34:02.035Z,7.95
2018-09-30T18:36:31.439Z,7.58
2018-09-30T18:39:00.800Z,7.78
2018-09-30T18:41:30.320Z,7.00
2018-09-30T18:43:59.693Z,7.45
2018-09-30T18:46:29.049Z,8.03
2018-09-30T18:48:58.459Z,7.20
2018-09-30T18:51:27.901Z,8.23
2018-09-30T18:53:57.282Z,8.25
2018-09-30T18:56:26.894Z,8.98
2018-09-30T18:58:56.121Z,7.60
2018-09-30T19:01:25.591Z,7.53
2018-09-30T19:03:54.935Z,8.53
2018-09-30T19:06:24.424Z,7.45
2018-09-30T19:08:57.664Z,7.22
2018-09-30T19:11:27.274Z,8.08
2018-09-30T19:13:56.679Z,8.05
2018-09-30T19:16:29.716Z,8.10
2018-09-30T19:18:59.283Z,6.72
2018-09-30T19:21:30.046Z,8.43
2018-09-30T19:24:01.527Z,8.35
2018-09-30T19:26:31.269Z,8.00
2018-09-30T19:29:01.129Z,7.75
2018-09-30T19:31:30.463Z,7.17
2018-09-30T19:34:01.346Z,8.08
2018-09-30T19:39:18.797Z,8.33
2018-09-30T19:41:48.442Z,8.83
2018-09-30T19:44:21.822Z,8.48
2018-09-30T19:46:51.312Z,8.98
2018-09-30T19:49:20.749Z,8.05
2018-09-30T19:51:50.284Z,8.35
2018-09-30T19:54:19.739Z,9.45
2018-09-30T19:56:50.712Z,8.48
2018-09-30T19:59:20.193Z,8.60
2018-09-30T20:01:49.699Z,8.80
2018-09-30T20:04:19.216Z,8.70
2018-09-30T20:06:51.007Z,8.33
2018-09-30T20:09:21.840Z,9.80
2018-09-30T20:11:53.963Z,8.28
2018-09-30T20:14:23.617Z,8.20
2018-09-30T20:16:56.857Z,8.13
2018-09-30T20:19:27.044Z,8.98
2018-09-30T20:24:38.933Z,8.78
2018-09-30T20:27:08.425Z,9.08
2018-09-30T20:29:38.001Z,9.05
2018-09-30T20:32:08.353Z,8.30
2018-09-30T20:34:39.377Z,8.95
2018-09-30T20:37:08.779Z,8.20
2018-09-30T20:39:38.154Z,8.28
2018-09-30T20:42:07.660Z,9.65
2018-09-30T20:44:37.067Z,8.40
2018-09-30T20:47:06.628Z,9.03
2018-09-30T20:49:36.075Z,9.00
2018-09-30T20:52:07.300Z,9.10
2018-09-30T20:54:36.897Z,10.05
2018-09-30T20:57:06.334Z,9.10
2018-09-30T20:59:35.777Z,9.13
2018-09-30T21:02:05.302Z,9.53
2018-09-30T21:04:34.740Z,10.10
2018-09-30T21:07:04.213Z,8.70
2018-09-30T21:09:33.589Z,9.63
2018-09-30T21:12:02.947Z,9.00
2018-09-30T21:14:32.440Z,8.30
2018-09-30T21:17:01.823Z,10.48
2018-09-30T21:19:31.237Z,9.73
2018-09-30T21:22:00.639Z,9.38
2018-09-30T21:24:30.036Z,9.20
2018-09-30T21:26:59.436Z,9.00
2018-09-30T21:29:28.842Z,9.10
2018-09-30T21:31:58.275Z,9.13
2018-09-30T21:34:27.725Z,9.95
2018-09-30T21:36:57.163Z,9.90
2018-09-30T21:39:26.673Z,9.68
2018-09-30T21:41:56.120Z,10.78
2018-09-30T21:44:25.568Z,9.38
2018-09-30T21:46:55.005Z,9.70
2018-09-30T21:49:24.385Z,9.58
2018-09-30T21:51:53.964Z,8.83
2018-09-30T21:54:23.470Z,9.30
2018-09-30T21:56:52.863Z,8.88
2018-09-30T21:59:22.301Z,9.33
2018-09-30T22:01:51.747Z,9.60
2018-09-30T22:04:21.178Z,9.28
2018-09-30T22:06:50.567Z,9.10
2018-09-30T22:09:19.990Z,8.53
2018-09-30T22:11:49.403Z,8.25
2018-09-30T22:14:18.777Z,9.98
2018-09-30T22:16:48.113Z,8.90
2018-09-30T22:19:17.497Z,9.35
2018-09-30T22:21:46.836Z,9.40
2018-09-30T22:24:16.276Z,9.35
2018-09-30T22:26:45.726Z,9.88
2018-09-30T22:29:15.071Z,9.53
2018-09-30T22:31:44.505Z,8.75
2018-09-30T22:34:13.907Z,9.43
2018-09-30T22:36:43.315Z,8.95
2018-09-30T22:39:12.778Z,10.63
2018-09-30T22:41:42.172Z,9.55
2018-09-30T22:44:11.539Z,10.00
2018-09-30T22:46:40.944Z,9.08
2018-09-30T22:49:10.279Z,9.40
2018-09-30T22:51:39.707Z,9.23
2018-09-30T22:54:09.123Z,10.25
2018-09-30T22:56:38.656Z,9.55
2018-09-30T22:59:08.073Z,9.93
2018-09-30T23:01:37.470Z,10.85
2018-09-30T23:04:07.185Z,9.55
2018-09-30T23:06:36.586Z,10.15
2018-09-30T23:09:08.157Z,9.13
2018-09-30T23:11:37.722Z,10.72
2018-09-30T23:14:07.451Z,10.08
2018-09-30T23:16:36.894Z,10.18
2018-09-30T23:19:06.321Z,9.73
2018-09-30T23:21:35.695Z,9.33
2018-09-30T23:24:05.037Z,8.98
2018-09-30T23:26:34.425Z,9.13
2018-09-30T23:29:03.788Z,9.13
2018-09-30T23:31:33.170Z,8.80
2018-09-30T23:34:02.676Z,9.50
2018-09-30T23:36:32.186Z,10.08
2018-09-30T23:39:01.751Z,9.38
2018-09-30T23:41:31.151Z,10.70
2018-09-30T23:44:00.559Z,10.23
2018-09-30T23:46:29.924Z,9.60
2018-09-30T23:48:59.265Z,8.88
2018-09-30T23:51:28.688Z,9.73
2018-09-30T23:53:58.100Z,9.88
2018-09-30T23:56:27.525Z,8.78
2018-09-30T23:58:56.883Z,9.55
